Time;durP1;ratioP1;P1;durP2;ratioP2;P2;SDS_P1;SDS_P2;PMS_P1;PMS_P2;Temp;Humidity;BMP_temperature;BMP_pressure;BME280_temperature;BME280_humidity;BME280_pressure;Samples;Min_cycle;Max_cycle;Signal;HPM_P1;HPM_P2
2022/04/24 00:01:30;;;;;;;13.90;7.90;;;;;;;16.18;88.08;98891.72;5029748;28;20197;-54
2022/04/24 00:03:57;;;;;;;13.83;7.63;;;;;;;16.11;88.24;98889.56;5029992;28;20197;-53
2022/04/24 00:06:24;;;;;;;14.93;8.13;;;;;;;16.04;89.26;98894.31;5029905;28;20211;-53
2022/04/24 00:08:53;;;;;;;14.23;8.10;;;;;;;16.02;89.73;98883.13;5029459;28;20209;-57
2022/04/24 00:11:20;;;;;;;13.80;7.90;;;;;;;15.91;89.80;98890.78;5029541;28;20193;-57
2022/04/24 00:13:47;;;;;;;16.00;7.13;;;;;;;16.00;90.11;98892.84;5029407;28;20640;-58
2022/04/24 00:16:13;;;;;;;12.73;6.50;;;;;;;15.90;91.25;98894.34;5029335;28;20205;-58
2022/04/24 00:18:41;;;;;;;11.53;6.87;;;;;;;15.71;93.05;98891.97;5029296;28;20225;-58
2022/04/24 00:21:09;;;;;;;13.97;6.13;;;;;;;15.50;94.22;98877.50;5029214;28;20197;-58
2022/04/24 00:23:36;;;;;;;14.00;7.10;;;;;;;15.47;94.02;98867.22;5029457;28;20190;-58
2022/04/24 00:26:04;;;;;;;15.83;8.30;;;;;;;15.61;93.56;98890.81;5029092;28;20229;-57
2022/04/24 00:28:31;;;;;;;11.13;7.10;;;;;;;15.66;93.66;98887.94;5029286;28;20670;-58
2022/04/24 00:30:58;;;;;;;14.30;6.30;;;;;;;15.58;93.14;98891.00;5029648;28;20193;-59
2022/04/24 00:33:25;;;;;;;10.73;6.07;;;;;;;15.58;91.69;98891.00;5028533;28;20193;-59
2022/04/24 00:35:52;;;;;;;11.20;5.40;;;;;;;15.53;90.63;98899.09;5029284;28;20667;-58
2022/04/24 00:38:20;;;;;;;6.93;4.57;;;;;;;15.56;87.34;98887.66;5029448;28;20603;-58
2022/04/24 00:40:47;;;;;;;4.50;3.87;;;;;;;15.54;83.22;98894.72;5029231;28;20211;-58
2022/04/24 00:43:16;;;;;;;6.40;4.20;;;;;;;15.57;82.01;98894.56;5028886;28;20204;-58
2022/04/24 00:45:43;;;;;;;5.47;3.67;;;;;;;15.57;81.25;98895.41;5029347;28;20223;-58
2022/04/24 00:48:10;;;;;;;5.27;3.63;;;;;;;15.62;80.54;98889.91;5029054;28;20200;-58
2022/04/24 00:50:40;;;;;;;6.80;3.50;;;;;;;15.61;80.31;98898.66;5028927;28;20285;-58
2022/04/24 00:53:07;;;;;;;6.70;3.60;;;;;;;15.64;79.95;98903.72;5028854;28;20201;-59
2022/04/24 00:55:34;;;;;;;5.37;3.77;;;;;;;15.66;79.96;98899.25;5028917;28;20207;-60
2022/04/24 00:58:01;;;;;;;4.10;3.67;;;;;;;15.66;79.51;98903.66;5028832;28;20205;-58
2022/04/24 01:00:30;;;;;;;7.07;3.33;;;;;;;15.63;79.57;98904.66;5029156;28;20208;-58
2022/04/24 01:02:59;;;;;;;4.90;3.30;;;;;;;15.62;79.05;98913.44;5028772;28;20227;-59
2022/04/24 01:05:26;;;;;;;11.37;3.40;;;;;;;15.58;79.49;98901.47;5028780;28;20751;-58
2022/04/24 01:07:53;;;;;;;4.63;4.13;;;;;;;15.60;79.24;98913.53;5028788;28;20591;-59
2022/04/24 01:10:20;;;;;;;7.70;3.30;;;;;;;15.64;78.81;98914.19;5028594;28;20201;-58
2022/04/24 01:12:46;;;;;;;4.57;2.90;;;;;;;15.59;79.81;98908.38;5028769;28;20231;-58
2022/04/24 01:15:14;;;;;;;7.77;4.43;;;;;;;15.43;81.38;98904.97;5028600;28;20237;-59
2022/04/24 01:17:43;;;;;;;6.57;3.63;;;;;;;15.27;82.68;98898.00;5028536;28;20202;-58
2022/04/24 01:20:12;;;;;;;6.17;3.60;;;;;;;15.31;83.30;98918.75;5028323;28;20243;-55
2022/04/24 01:22:40;;;;;;;8.27;3.93;;;;;;;15.37;83.84;98918.38;5028409;28;20686;-53
2022/04/24 01:25:07;;;;;;;7.70;4.23;;;;;;;15.31;84.07;98921.34;5028340;28;20247;-53
2022/04/24 01:27:34;;;;;;;4.83;3.57;;;;;;;15.31;84.40;98923.97;5028751;28;20839;-54
2022/04/24 01:30:01;;;;;;;9.43;3.97;;;;;;;15.31;85.67;98919.59;5028415;28;20280;-54
2022/04/24 01:32:28;;;;;;;8.67;3.73;;;;;;;15.24;86.90;98932.16;5028352;28;20202;-54
2022/04/24 01:34:55;;;;;;;5.47;3.93;;;;;;;15.19;87.28;98931.59;5028351;28;20201;-53
2022/04/24 01:37:22;;;;;;;7.10;3.83;;;;;;;15.20;86.84;98930.66;5028065;28;20208;-53
2022/04/24 01:39:50;;;;;;;5.90;4.20;;;;;;;15.11;89.35;98927.72;5028078;28;20228;-54
2022/04/24 01:42:17;;;;;;;6.80;4.37;;;;;;;15.02;91.11;98931.69;5028084;28;20194;-53
2022/04/24 01:44:44;;;;;;;6.37;3.87;;;;;;;14.95;91.88;98927.72;5027849;28;20193;-55
2022/04/24 01:47:11;;;;;;;5.93;3.90;;;;;;;14.87;93.34;98936.00;5027925;28;20208;-54
2022/04/24 01:49:38;;;;;;;11.07;3.90;;;;;;;14.85;93.97;98931.78;5028199;28;20683;-53
2022/04/24 01:52:06;;;;;;;7.67;3.90;;;;;;;14.85;92.93;98916.13;5028031;28;20236;-58
2022/04/24 01:54:33;;;;;;;7.37;4.67;;;;;;;14.81;94.75;98932.88;5028387;28;20268;-59
2022/04/24 01:57:01;;;;;;;5.00;4.60;;;;;;;14.66;95.99;98931.13;5028175;28;20193;-58
2022/04/24 01:59:28;;;;;;;6.50;5.03;;;;;;;14.48;97.79;98933.78;5027765;28;20227;-58
2022/04/24 02:01:55;;;;;;;7.73;4.93;;;;;;;14.35;99.82;98935.34;5027874;28;20243;-58
2022/04/24 02:04:23;;;;;;;7.13;4.13;;;;;;;14.29;100.00;98930.47;5027746;28;20197;-58
2022/04/24 02:06:50;;;;;;;6.00;4.63;;;;;;;14.29;100.00;98938.28;5027779;28;20205;-58
2022/04/24 02:09:17;;;;;;;6.27;4.77;;;;;;;14.21;100.00;98923.97;5027878;28;20700;-57
2022/04/24 02:11:44;;;;;;;10.57;4.83;;;;;;;14.29;100.00;98935.69;5027786;28;20193;-59
2022/04/24 02:14:13;;;;;;;12.63;5.03;;;;;;;14.26;100.00;98932.38;5027752;28;20704;-58
2022/04/24 02:16:40;;;;;;;14.63;6.37;;;;;;;14.12;100.00;98930.50;5027726;28;20634;-59
2022/04/24 02:19:06;;;;;;;6.93;5.17;;;;;;;14.04;100.00;98937.88;5027553;28;20730;-59
2022/04/24 02:21:34;;;;;;;7.17;5.10;;;;;;;14.00;100.00;98942.41;5027825;28;20208;-58
2022/04/24 02:24:00;;;;;;;10.60;5.40;;;;;;;13.94;100.00;98932.31;5027622;28;20197;-58
2022/04/24 02:26:27;;;;;;;7.10;5.13;;;;;;;13.99;100.00;98927.72;5027459;28;20209;-58
2022/04/24 02:28:55;;;;;;;7.87;4.93;;;;;;;14.18;100.00;98938.00;5027503;28;20201;-58
2022/04/24 02:31:23;;;;;;;6.30;5.33;;;;;;;14.03;100.00;98944.88;5027365;28;20288;-54
2022/04/24 02:33:50;;;;;;;9.73;5.67;;;;;;;13.96;100.00;98950.50;5027701;28;20715;-54
2022/04/24 02:36:17;;;;;;;9.43;5.50;;;;;;;14.02;100.00;98952.78;5027544;28;20583;-54
2022/04/24 02:38:45;;;;;;;9.27;5.23;;;;;;;14.04;100.00;98953.53;5027347;28;20221;-54
2022/04/24 02:41:12;;;;;;;7.20;5.67;;;;;;;14.00;100.00;98962.44;5027263;28;20208;-54
2022/04/24 02:43:39;;;;;;;6.20;5.50;;;;;;;13.85;100.00;98958.03;5027675;28;20717;-54
2022/04/24 02:46:06;;;;;;;10.13;6.43;;;;;;;13.96;100.00;98968.75;5027505;28;20616;-54
2022/04/24 02:48:34;;;;;;;11.67;5.70;;;;;;;13.97;100.00;98970.44;5027579;28;20671;-54
2022/04/24 02:51:01;;;;;;;9.27;6.30;;;;;;;13.81;100.00;98968.59;5027439;28;20589;-54
2022/04/24 02:53:28;;;;;;;8.73;5.77;;;;;;;13.51;100.00;98967.53;5027343;28;20610;-54
2022/04/24 02:55:54;;;;;;;11.03;6.40;;;;;;;13.31;100.00;98971.13;5027255;28;20595;-54
2022/04/24 02:58:22;;;;;;;8.33;6.27;;;;;;;13.29;100.00;98966.91;5030381;28;20587;-53
2022/04/24 03:00:51;;;;;;;9.03;6.60;;;;;;;13.35;100.00;98974.41;5030434;28;20663;-53
2022/04/24 03:03:19;;;;;;;9.57;6.50;;;;;;;13.32;100.00;98979.75;5030672;28;20205;-53
2022/04/24 03:05:48;;;;;;;8.57;6.50;;;;;;;13.03;100.00;98948.13;5030761;28;20670;-53
2022/04/24 03:08:16;;;;;;;12.80;6.40;;;;;;;13.13;100.00;98981.53;5030508;28;20200;-53
2022/04/24 03:10:43;;;;;;;8.67;6.90;;;;;;;13.14;100.00;98981.50;5030625;28;20193;-54
2022/04/24 03:13:10;;;;;;;14.33;6.73;;;;;;;13.24;100.00;98992.31;5030555;28;20199;-53
2022/04/24 03:15:38;;;;;;;9.83;7.00;;;;;;;13.37;100.00;98991.66;5030958;28;20207;-52
2022/04/24 03:18:05;;;;;;;7.90;6.80;;;;;;;13.34;100.00;98993.56;5030237;28;20230;-53
2022/04/24 03:20:32;;;;;;;7.67;6.37;;;;;;;13.44;100.00;98995.66;5030280;28;20246;-53
2022/04/24 03:23:01;;;;;;;7.10;6.40;;;;;;;13.50;100.00;98998.91;5030335;28;20594;-53
2022/04/24 03:25:28;;;;;;;8.03;6.37;;;;;;;13.41;100.00;99000.19;5030135;28;20754;-53
2022/04/24 03:27:55;;;;;;;9.77;5.80;;;;;;;13.26;100.00;99011.34;5030113;28;20312;-53
2022/04/24 03:30:22;;;;;;;10.17;5.93;;;;;;;13.18;100.00;99003.91;5030199;28;20201;-53
2022/04/24 03:32:49;;;;;;;10.03;5.87;;;;;;;13.23;100.00;99016.69;5030168;28;20201;-53
2022/04/24 03:35:16;;;;;;;7.73;5.50;;;;;;;13.33;100.00;99017.94;5030142;28;20571;-54
2022/04/24 03:37:43;;;;;;;8.90;6.10;;;;;;;13.38;100.00;99015.97;5030239;28;20422;-54
2022/04/24 03:40:13;;;;;;;9.63;5.17;;;;;;;13.43;100.00;99022.63;5029918;28;20217;-54
2022/04/24 03:42:40;;;;;;;6.93;5.47;;;;;;;13.51;100.00;99018.84;5030142;28;20258;-54
2022/04/24 03:45:09;;;;;;;8.10;5.30;;;;;;;13.55;100.00;99018.59;5029928;28;20284;-54
2022/04/24 03:47:36;;;;;;;10.60;5.47;;;;;;;13.64;100.00;99031.22;5029988;28;20236;-54
2022/04/24 03:50:04;;;;;;;9.10;6.10;;;;;;;13.74;100.00;99029.84;5030325;28;20659;-54
2022/04/24 03:52:31;;;;;;;7.77;6.03;;;;;;;13.68;100.00;99027.50;5029981;28;20593;-54
2022/04/24 03:54:58;;;;;;;7.97;5.90;;;;;;;13.75;100.00;99031.53;5032658;28;20670;-54
2022/04/24 03:57:27;;;;;;;7.20;6.00;;;;;;;13.87;100.00;99037.91;5041331;28;20192;-55
2022/04/24 03:59:54;;;;;;;7.33;5.47;;;;;;;13.62;100.00;99040.88;5039055;28;20301;-54
2022/04/24 04:02:20;;;;;;;7.17;5.13;;;;;;;13.67;100.00;99030.19;5037920;28;20670;-53
2022/04/24 04:04:47;;;;;;;5.80;5.30;;;;;;;14.01;100.00;99043.25;5037669;28;20207;-54
2022/04/24 04:07:14;;;;;;;7.63;5.50;;;;;;;14.35;100.00;99047.59;5037374;28;20197;-53
2022/04/24 04:09:41;;;;;;;5.23;4.83;;;;;;;14.88;100.00;99044.81;5041514;28;20199;-53
2022/04/24 04:12:10;;;;;;;7.17;5.07;;;;;;;15.68;97.49;99049.13;5036395;28;20202;-53
2022/04/24 04:14:38;;;;;;;6.80;5.47;;;;;;;16.73;89.81;99060.38;5034443;28;20201;-59
2022/04/24 04:17:06;;;;;;;5.07;4.67;;;;;;;17.84;81.60;99064.66;5038621;28;20202;-59
2022/04/24 04:19:33;;;;;;;10.00;4.87;;;;;;;18.75;72.91;99071.63;5037888;28;20578;-55
2022/04/24 04:22:00;;;;;;;7.13;5.13;;;;;;;19.57;68.49;99062.31;5039432;28;20587;-54
2022/04/24 04:24:27;;;;;;;7.15;5.03;;;;;;;20.56;62.11;99076.81;5038147;28;20313;-55
2022/04/24 04:26:54;;;;;;;6.22;4.72;;;;;;;21.20;57.70;99074.50;5038931;28;20448;-55
2022/04/24 04:29:21;;;;;;;6.35;4.85;;;;;;;22.28;54.82;99073.53;5038196;28;20197;-55
2022/04/24 04:31:49;;;;;;;5.20;4.72;;;;;;;23.39;49.78;99078.97;5038172;28;20590;-56
2022/04/24 04:34:16;;;;;;;5.00;4.45;;;;;;;24.19;47.08;99078.78;5036678;28;20215;-55
2022/04/24 04:36:43;;;;;;;5.22;4.72;;;;;;;24.42;45.34;99085.50;5029724;28;20477;-58
2022/04/24 04:39:10;;;;;;;9.45;4.70;;;;;;;24.96;44.44;99089.28;5028254;28;20197;-56
2022/04/24 04:41:37;;;;;;;5.88;4.30;;;;;;;25.71;42.03;99095.38;5028562;28;20197;-56
2022/04/24 04:44:04;;;;;;;7.13;4.75;;;;;;;26.28;40.60;99088.78;5028095;28;20683;-56
2022/04/24 04:46:31;;;;;;;9.98;4.22;;;;;;;26.16;40.04;99095.31;5028334;28;20198;-55
2022/04/24 04:49:00;;;;;;;4.55;3.83;;;;;;;26.26;39.85;99091.56;5030551;28;20212;-53
2022/04/24 04:51:26;;;;;;;4.68;4.28;;;;;;;26.42;39.48;99096.19;5048038;28;20193;-55
2022/04/24 04:53:55;;;;;;;6.25;4.10;;;;;;;27.02;38.24;99098.94;5048064;28;20201;-55
2022/04/24 04:56:22;;;;;;;4.70;4.30;;;;;;;27.91;37.34;99085.94;5048017;28;20560;-55
2022/04/24 04:58:49;;;;;;;7.47;4.65;;;;;;;28.43;35.84;99097.16;5047879;28;20237;-55
2022/04/24 05:01:16;;;;;;;6.82;5.07;;;;;;;28.05;35.87;99103.97;5047739;28;20224;-55
2022/04/24 05:03:43;;;;;;;6.43;5.82;;;;;;;28.15;36.12;99103.78;5047556;28;20204;-55
2022/04/24 05:06:11;;;;;;;6.05;5.55;;;;;;;28.76;34.46;99086.44;5041967;28;20656;-57
2022/04/24 05:08:38;;;;;;;10.18;5.65;;;;;;;29.56;33.84;99098.72;5040786;28;20223;-56
2022/04/24 05:11:05;;;;;;;8.85;5.53;;;;;;;30.37;32.12;99099.16;5036665;28;20292;-56
2022/04/24 05:13:32;;;;;;;7.30;5.40;;;;;;;30.48;31.84;99088.03;5047935;28;20671;-57
2022/04/24 05:15:59;;;;;;;6.28;5.30;;;;;;;30.21;31.57;99092.97;5048329;28;20228;-57
2022/04/24 05:18:26;;;;;;;5.75;5.18;;;;;;;30.05;31.80;99103.78;5048225;28;20716;-56
2022/04/24 05:20:53;;;;;;;7.20;5.93;;;;;;;30.00;31.80;99094.63;5047616;28;20225;-56
2022/04/24 05:23:21;;;;;;;6.80;5.20;;;;;;;29.77;31.79;99098.09;5048290;28;20300;-56
2022/04/24 05:25:48;;;;;;;5.22;4.85;;;;;;;29.98;31.62;99097.47;5048185;28;20246;-58
2022/04/24 05:28:15;;;;;;;6.35;4.63;;;;;;;30.09;31.47;99098.91;5048184;28;20283;-57
2022/04/24 05:30:42;;;;;;;5.97;5.35;;;;;;;30.95;30.41;99090.41;5048047;28;20197;-57
2022/04/24 05:33:09;;;;;;;5.65;4.85;;;;;;;31.66;29.53;99091.59;5048238;28;20709;-58
2022/04/24 05:35:36;;;;;;;5.00;4.43;;;;;;;31.31;29.60;99091.34;5048287;28;20615;-57
2022/04/24 05:38:03;;;;;;;7.50;4.47;;;;;;;30.75;30.35;99086.63;5047976;28;20200;-57
2022/04/24 05:40:31;;;;;;;8.75;4.47;;;;;;;31.15;29.59;99085.38;5048082;28;20740;-56
2022/04/24 05:42:58;;;;;;;5.35;4.70;;;;;;;30.98;29.74;99085.53;5047842;28;20228;-57
2022/04/24 05:45:25;;;;;;;4.75;4.35;;;;;;;30.82;30.22;99091.06;5047712;28;20277;-57
2022/04/24 05:47:54;;;;;;;9.23;4.60;;;;;;;31.31;29.76;99088.69;5047956;28;20199;-57
2022/04/24 05:50:23;;;;;;;8.27;5.25;;;;;;;30.81;30.11;99092.09;5047934;28;20665;-56
2022/04/24 05:52:50;;;;;;;7.25;4.88;;;;;;;30.77;30.11;99095.31;5047937;28;20402;-56
2022/04/24 05:55:17;;;;;;;7.43;5.38;;;;;;;31.10;29.85;99091.28;5047884;28;20208;-55
2022/04/24 05:57:45;;;;;;;6.93;5.25;;;;;;;31.64;29.36;99096.31;5047868;28;20196;-56
2022/04/24 06:00:13;;;;;;;9.85;5.00;;;;;;;31.87;28.56;99090.78;5047969;28;20683;-57
2022/04/24 06:02:41;;;;;;;9.73;5.85;;;;;;;32.14;28.81;99092.72;5047916;28;20678;-57
2022/04/24 06:05:08;;;;;;;8.13;5.03;;;;;;;32.47;28.02;99096.56;5047434;28;20204;-56
2022/04/24 06:07:35;;;;;;;6.32;4.70;;;;;;;33.25;27.51;99101.88;5047674;28;20196;-56
2022/04/24 06:10:02;;;;;;;4.40;4.10;;;;;;;32.84;27.84;99102.66;5047382;28;20197;-54
2022/04/24 06:12:29;;;;;;;5.05;4.47;;;;;;;33.11;27.30;99104.44;5047525;28;20207;-55
2022/04/24 06:15:03;;;;;;;5.68;3.80;;;;;;;33.26;27.66;99095.47;5047713;28;20200;-55
2022/04/24 06:17:30;;;;;;;10.05;4.28;;;;;;;33.31;27.11;99096.50;5047587;28;20204;-57
2022/04/24 06:19:57;;;;;;;7.78;4.20;;;;;;;32.95;27.66;99098.56;5047633;28;20231;-56
2022/04/24 06:22:23;;;;;;;5.45;4.35;;;;;;;32.77;28.13;99096.38;5047432;28;20200;-57
2022/04/24 06:24:50;;;;;;;7.13;4.10;;;;;;;32.72;28.29;99099.69;5047312;28;20628;-57
2022/04/24 06:27:17;;;;;;;10.80;4.25;;;;;;;32.34;29.03;99096.44;5047299;28;20193;-55
2022/04/24 06:29:44;;;;;;;6.05;4.40;;;;;;;32.45;28.90;99098.59;5047240;28;20197;-56
2022/04/24 06:32:13;;;;;;;3.80;3.45;;;;;;;31.98;29.44;99095.66;5046054;28;20291;-56
2022/04/24 06:34:39;;;;;;;5.90;4.30;;;;;;;31.92;29.34;99085.69;5047192;28;20197;-56
2022/04/24 06:37:06;;;;;;;4.50;4.10;;;;;;;31.90;29.65;99090.41;5047370;28;20228;-56
2022/04/24 06:39:34;;;;;;;8.85;4.55;;;;;;;31.94;29.74;99089.03;5046986;28;20197;-55
2022/04/24 06:42:00;;;;;;;6.25;4.30;;;;;;;32.59;29.33;99096.03;5046954;28;20221;-55
2022/04/24 06:44:27;;;;;;;8.13;4.65;;;;;;;33.53;28.44;99097.22;5047253;28;20207;-55
2022/04/24 06:46:54;;;;;;;8.90;4.72;;;;;;;33.89;27.67;99091.53;5047198;28;20200;-57
2022/04/24 06:49:22;;;;;;;7.72;4.25;;;;;;;33.85;27.91;99090.31;5047003;28;20200;-56
2022/04/24 06:51:49;;;;;;;9.32;4.85;;;;;;;33.39;28.38;99090.97;5047119;28;20193;-56
2022/04/24 06:54:16;;;;;;;5.65;4.47;;;;;;;32.91;28.69;99090.06;5046716;28;20201;-56
2022/04/24 06:56:43;;;;;;;10.88;5.30;;;;;;;33.36;28.81;99088.66;5046795;28;20200;-56
2022/04/24 06:59:10;;;;;;;5.32;4.93;;;;;;;33.76;28.02;99084.25;5046824;28;20203;-56
2022/04/24 07:01:37;;;;;;;9.00;4.60;;;;;;;33.25;28.74;99093.78;5046979;28;20216;-56
2022/04/24 07:04:04;;;;;;;9.98;5.28;;;;;;;33.00;28.79;99070.06;5046922;28;20277;-56
2022/04/24 07:06:32;;;;;;;10.73;5.03;;;;;;;32.84;29.30;99081.13;5046712;28;20284;-56
2022/04/24 07:08:59;;;;;;;5.03;4.55;;;;;;;32.39;29.68;99079.75;5046963;28;20211;-56
2022/04/24 07:11:26;;;;;;;8.63;5.00;;;;;;;32.88;29.72;99076.19;5046783;28;20193;-56
2022/04/24 07:13:53;;;;;;;6.63;5.18;;;;;;;33.31;29.35;99079.53;5047082;28;20635;-56
2022/04/24 07:16:20;;;;;;;7.43;4.82;;;;;;;33.30;29.15;99084.06;5040880;28;20225;-57
2022/04/24 07:18:47;;;;;;;6.38;4.32;;;;;;;32.84;29.17;99065.00;5026877;28;20204;-56
2022/04/24 07:21:14;;;;;;;5.35;4.85;;;;;;;33.51;28.53;99089.38;5026431;28;20217;-56
2022/04/24 07:23:42;;;;;;;4.97;4.50;;;;;;;33.60;28.12;99087.31;5026835;28;20325;-56
2022/04/24 07:26:09;;;;;;;7.72;5.13;;;;;;;33.91;28.25;99080.56;5026554;28;20235;-57
2022/04/24 07:28:36;;;;;;;5.00;4.50;;;;;;;34.45;27.68;99085.81;5026807;28;20721;-55
2022/04/24 07:31:03;;;;;;;9.05;4.43;;;;;;;35.14;27.14;99083.44;5026566;28;20284;-57
2022/04/24 07:33:30;;;;;;;9.48;4.43;;;;;;;34.94;26.40;99082.69;5026639;28;20205;-57
2022/04/24 07:35:57;;;;;;;6.65;4.30;;;;;;;34.40;27.15;99082.94;5026835;28;20290;-57
2022/04/24 07:38:24;;;;;;;9.82;4.40;;;;;;;34.40;27.07;99089.16;5026661;28;20193;-56
2022/04/24 07:40:52;;;;;;;9.55;3.65;;;;;;;33.75;27.29;99084.50;5026545;28;20228;-56
2022/04/24 07:43:19;;;;;;;6.07;3.90;;;;;;;32.96;28.27;99084.91;5028124;28;20306;-56
2022/04/24 07:45:48;;;;;;;5.82;3.70;;;;;;;33.60;27.36;99087.31;5029976;28;20201;-57
2022/04/24 07:48:16;;;;;;;4.70;4.07;;;;;;;34.19;26.62;99086.63;5029920;28;20209;-56
2022/04/24 07:50:45;;;;;;;10.77;3.67;;;;;;;34.53;26.55;99091.03;5030068;28;20642;-57
2022/04/24 07:53:13;;;;;;;7.30;3.83;;;;;;;34.35;26.40;99080.03;5029805;28;20205;-56
2022/04/24 07:55:42;;;;;;;6.88;4.13;;;;;;;33.95;26.75;99074.59;5029985;28;20204;-57
2022/04/24 07:58:10;;;;;;;4.43;4.03;;;;;;;33.61;27.09;99080.06;5029717;28;20206;-56
2022/04/24 08:00:38;;;;;;;6.25;3.75;;;;;;;33.73;27.30;99081.13;5029576;28;20232;-57
2022/04/24 08:03:06;;;;;;;6.55;3.80;;;;;;;34.07;27.48;99072.94;5029958;28;20584;-57
2022/04/24 08:05:36;;;;;;;3.78;3.47;;;;;;;33.54;27.17;99062.03;5029672;28;20193;-57
2022/04/24 08:08:04;;;;;;;7.80;3.97;;;;;;;32.94;27.76;99060.09;5029554;28;20202;-56
2022/04/24 08:10:33;;;;;;;6.15;3.40;;;;;;;32.52;28.21;99065.56;5029649;28;20587;-56
2022/04/24 08:13:03;;;;;;;8.73;3.78;;;;;;;33.08;27.56;99060.97;5029779;28;20194;-56
2022/04/24 08:15:32;;;;;;;8.57;3.67;;;;;;;33.83;27.30;99054.69;5029410;28;20717;-56
2022/04/24 08:17:59;;;;;;;7.32;3.67;;;;;;;33.48;27.53;99051.25;5029731;28;20229;-56
2022/04/24 08:20:26;;;;;;;5.35;3.85;;;;;;;33.57;27.59;99046.50;5029676;28;20205;-55
2022/04/24 08:22:55;;;;;;;7.60;3.92;;;;;;;33.96;26.96;99041.25;5029350;28;20207;-56
2022/04/24 08:25:23;;;;;;;4.82;3.95;;;;;;;34.32;27.11;99048.94;5029143;28;20619;-56
2022/04/24 08:27:52;;;;;;;7.18;4.00;;;;;;;34.36;26.87;99044.78;5029328;28;20198;-57
2022/04/24 08:30:20;;;;;;;7.22;3.65;;;;;;;34.66;26.31;99038.94;5029458;28;20317;-57
2022/04/24 08:32:49;;;;;;;5.82;3.50;;;;;;;33.70;27.47;99039.31;5029258;28;20237;-56
2022/04/24 08:35:17;;;;;;;9.90;3.78;;;;;;;33.69;27.13;99043.03;5029118;28;20206;-57
2022/04/24 08:37:45;;;;;;;4.22;3.20;;;;;;;33.86;27.05;99044.31;5029177;28;20194;-55
2022/04/24 08:40:14;;;;;;;4.40;3.97;;;;;;;33.31;27.16;99012.28;5028953;28;20198;-56
2022/04/24 08:42:42;;;;;;;7.40;3.83;;;;;;;32.03;29.37;99020.75;5028853;28;20227;-55
2022/04/24 08:45:12;;;;;;;7.28;4.00;;;;;;;31.99;29.60;99016.78;5029114;28;20233;-56
2022/04/24 08:47:39;;;;;;;5.10;3.55;;;;;;;31.47;30.29;99017.06;5029050;28;20198;-56
2022/04/24 08:50:09;;;;;;;8.18;3.88;;;;;;;31.19;31.08;99012.41;5028980;28;20194;-56
2022/04/24 08:52:36;;;;;;;6.30;4.40;;;;;;;30.60;31.84;99007.06;5029049;28;20596;-56
2022/04/24 08:55:03;;;;;;;5.47;3.80;;;;;;;30.11;32.75;98996.00;5030430;28;20255;-56
2022/04/24 08:57:31;;;;;;;12.93;3.97;;;;;;;29.86;33.00;98997.19;5047907;28;20197;-57
2022/04/24 08:59:59;;;;;;;6.25;3.95;;;;;;;30.30;32.89;98995.47;5048082;28;20212;-57
2022/04/24 09:02:26;;;;;;;9.93;4.35;;;;;;;30.16;33.01;98998.13;5047574;28;20225;-58
2022/04/24 09:04:53;;;;;;;5.47;3.58;;;;;;;29.95;33.70;98993.44;5029999;28;20194;-56
2022/04/24 09:07:24;;;;;;;5.70;3.53;;;;;;;29.96;33.40;98995.13;5031671;28;20206;-56
2022/04/24 09:09:53;;;;;;;12.82;3.90;;;;;;;29.95;33.79;98982.72;5036065;28;20595;-56
2022/04/24 09:12:24;;;;;;;4.22;3.22;;;;;;;30.11;33.83;98981.78;5040530;28;20235;-56
2022/04/24 09:14:52;;;;;;;8.57;4.03;;;;;;;30.12;33.73;98986.97;5045374;28;20634;-57
2022/04/24 09:17:20;;;;;;;6.38;3.90;;;;;;;29.68;34.27;98968.09;5048536;28;20192;-57
2022/04/24 09:19:48;;;;;;;9.93;4.25;;;;;;;29.73;34.81;98978.22;5045314;28;20238;-56
2022/04/24 09:22:16;;;;;;;6.65;4.15;;;;;;;29.51;34.39;98951.31;5045167;28;20277;-56
2022/04/24 09:24:46;;;;;;;7.32;4.18;;;;;;;29.89;34.61;98967.41;5048368;28;20636;-56
2022/04/24 09:27:23;;;;;;;6.43;3.88;;;;;;;30.04;34.35;98964.78;5029905;28;20202;-57
2022/04/24 09:29:54;;;;;;;8.73;4.35;;;;;;;30.15;33.80;98943.75;5033724;28;20196;-56
2022/04/24 09:32:21;;;;;;;11.30;4.22;;;;;;;30.07;33.95;98948.38;5036546;28;20198;-58
2022/04/24 09:34:48;;;;;;;7.88;4.25;;;;;;;30.22;34.19;98947.38;5045230;28;20224;-56
2022/04/24 09:37:15;;;;;;;8.23;5.03;;;;;;;31.31;32.40;98949.22;5048133;28;20197;-56
2022/04/24 09:39:44;;;;;;;12.05;4.70;;;;;;;31.57;32.22;98942.47;5048115;28;20208;-56
2022/04/24 09:42:12;;;;;;;6.38;5.05;;;;;;;31.54;32.25;98943.69;5048084;28;20221;-56
2022/04/24 09:44:42;;;;;;;4.85;4.35;;;;;;;31.66;32.11;98942.16;5038920;28;20194;-57
2022/04/24 09:47:10;;;;;;;7.85;3.67;;;;;;;31.72;32.34;98936.03;5037406;28;20193;-57
2022/04/24 09:49:39;;;;;;;8.05;4.55;;;;;;;30.71;33.61;98930.75;5038713;28;20196;-57
2022/04/24 09:52:11;;;;;;;9.88;4.80;;;;;;;30.41;34.06;98932.59;5027743;28;20284;-57
2022/04/24 09:54:41;;;;;;;6.45;4.28;;;;;;;31.19;32.97;98921.25;5028168;28;20266;-57
2022/04/24 09:57:10;;;;;;;7.53;3.78;;;;;;;31.96;31.83;98931.25;5027732;28;20296;-56
2022/04/24 09:59:39;;;;;;;10.32;4.40;;;;;;;31.92;32.38;98927.31;5027778;28;20213;-58
2022/04/24 10:02:07;;;;;;;11.90;4.20;;;;;;;32.18;31.92;98919.47;5027595;28;20221;-57
2022/04/24 10:04:38;;;;;;;7.75;4.47;;;;;;;32.50;31.59;98917.19;5027903;28;20197;-57
2022/04/24 10:07:06;;;;;;;9.63;5.10;;;;;;;32.50;31.59;98917.19;5027600;28;20197;-57
2022/04/24 10:09:35;;;;;;;9.57;4.43;;;;;;;32.59;31.10;98916.81;5028194;28;20198;-57
2022/04/24 10:12:06;;;;;;;5.60;3.85;;;;;;;32.38;31.56;98909.69;5039190;28;20254;-57
2022/04/24 10:14:40;;;;;;;9.60;3.95;;;;;;;32.03;31.28;98895.41;5027744;28;20205;-56
2022/04/24 10:17:42;;;;;;;9.82;3.60;;;;;;;31.44;32.18;98902.94;5027936;28;20671;-56
2022/04/24 10:20:31;;;;;;;7.75;4.32;;;;;;;29.76;35.02;98892.28;5027465;28;20680;-57
2022/04/24 10:23:00;;;;;;;11.40;4.35;;;;;;;28.41;37.33;98906.97;5036252;28;20228;-57
2022/04/24 10:25:32;;;;;;;9.70;4.45;;;;;;;27.70;38.93;98899.72;5027417;28;20235;-58
2022/04/24 10:28:11;;;;;;;8.90;4.57;;;;;;;26.95;40.59;98895.50;5027475;28;20197;-57
2022/04/24 10:30:39;;;;;;;10.40;3.88;;;;;;;26.68;40.95;98891.22;5027432;28;20197;-58
2022/04/24 10:33:18;;;;;;;10.18;5.40;;;;;;;26.34;41.88;98883.28;5027371;28;20213;-58
2022/04/24 10:35:50;;;;;;;11.48;4.22;;;;;;;25.96;42.80;98872.06;5026389;28;20207;-58
2022/04/24 10:38:18;;;;;;;6.90;4.53;;;;;;;25.75;42.71;98876.06;5026942;28;20221;-57
2022/04/24 10:40:57;;;;;;;11.70;5.45;;;;;;;25.68;43.22;98859.94;5026525;28;20224;-58
2022/04/24 10:43:25;;;;;;;6.32;5.70;;;;;;;25.61;43.79;98866.88;5026698;28;20643;-56
2022/04/24 10:45:54;;;;;;;17.38;6.32;;;;;;;25.22;43.82;98839.78;5026578;28;20222;-57
2022/04/24 10:48:21;;;;;;;8.48;4.85;;;;;;;25.27;43.78;98866.72;5026417;28;20221;-58
2022/04/24 10:50:49;;;;;;;11.93;4.47;;;;;;;25.39;44.74;98868.16;5026556;28;20767;-58
2022/04/24 10:53:17;;;;;;;10.35;4.22;;;;;;;25.26;43.86;98844.66;5027243;28;20216;-57
2022/04/24 10:55:44;;;;;;;25.30;7.50;;;;;;;25.32;44.57;98841.34;5026088;28;20217;-57
2022/04/24 10:58:12;;;;;;;12.18;4.47;;;;;;;25.41;44.00;98849.38;5026947;28;20657;-56
2022/04/24 11:00:39;;;;;;;12.93;3.90;;;;;;;25.57;44.20;98865.47;5026342;28;20219;-56
2022/04/24 11:03:11;;;;;;;12.20;4.20;;;;;;;25.48;44.27;98859.25;5025968;28;20228;-56
2022/04/24 11:05:40;;;;;;;32.95;13.40;;;;;;;25.47;44.28;98854.94;5045448;28;20225;-56
2022/04/24 11:08:09;;;;;;;18.52;4.97;;;;;;;25.48;43.64;98842.47;5046447;28;20586;-57
2022/04/24 11:10:41;;;;;;;15.45;5.70;;;;;;;25.39;44.45;98844.25;5045970;28;20227;-57
2022/04/24 11:13:11;;;;;;;15.85;4.20;;;;;;;25.42;44.72;98843.09;5046390;28;20224;-56
2022/04/24 11:15:42;;;;;;;12.38;4.93;;;;;;;25.43;45.29;98832.31;5046072;28;20220;-56
2022/04/24 11:18:22;;;;;;;12.88;4.35;;;;;;;25.45;45.32;98834.81;5047167;28;20221;-56
2022/04/24 11:20:58;;;;;;;14.02;5.80;;;;;;;25.43;44.90;98826.16;5049228;28;20212;-56
2022/04/24 11:23:29;;;;;;;24.33;7.57;;;;;;;25.47;44.77;98816.91;5049733;28;20232;-56
2022/04/24 11:25:56;;;;;;;11.25;4.25;;;;;;;25.66;45.03;98822.03;5049419;28;20611;-58
2022/04/24 11:28:34;;;;;;;15.65;5.43;;;;;;;25.79;42.71;98819.78;5049742;28;20228;-58
2022/04/24 11:31:11;;;;;;;12.57;3.83;;;;;;;25.56;42.79;98803.50;5049562;28;20215;-58
2022/04/24 11:33:51;;;;;;;17.98;5.05;;;;;;;25.70;43.68;98826.06;5048863;28;20232;-58